sensor_id;sensor_type;location;lat;lon;timestamp;temperature;humidity
12708;DHT22;6418;50.824;4.718;2023-07-31T00:01:25;16.60;99.90
12708;DHT22;6418;50.824;4.718;2023-07-31T00:03:52;16.60;99.90
12708;DHT22;6418;50.824;4.718;2023-07-31T00:06:19;16.70;99.90
12708;DHT22;6418;50.824;4.718;2023-07-31T00:08:46;16.70;99.90
12708;DHT22;6418;50.824;4.718;2023-07-31T00:11:14;16.70;99.90
12708;DHT22;6418;50.824;4.718;2023-07-31T00:13:41;16.70;99.90
12708;DHT22;6418;50.824;4.718;2023-07-31T00:16:08;16.70;99.90
12708;DHT22;6418;50.824;4.718;2023-07-31T00:18:35;16.70;99.90
12708;DHT22;6418;50.824;4.718;2023-07-31T00:21:01;16.70;99.90
12708;DHT22;6418;50.824;4.718;2023-07-31T00:23:28;16.80;99.90
12708;DHT22;6418;50.824;4.718;2023-07-31T00:25:55;16.80;99.90
12708;DHT22;6418;50.824;4.718;2023-07-31T00:28:23;16.80;99.90
12708;DHT22;6418;50.824;4.718;2023-07-31T00:30:50;16.80;99.90
12708;DHT22;6418;50.824;4.718;2023-07-31T00:33:17;16.80;99.90
12708;DHT22;6418;50.824;4.718;2023-07-31T00:35:44;16.80;99.90
12708;DHT22;6418;50.824;4.718;2023-07-31T00:38:11;16.80;99.90
12708;DHT22;6418;50.824;4.718;2023-07-31T00:40:38;16.80;99.90
12708;DHT22;6418;50.824;4.718;2023-07-31T00:43:05;16.90;99.90
12708;DHT22;6418;50.824;4.718;2023-07-31T00:45:33;16.90;99.90
12708;DHT22;6418;50.824;4.718;2023-07-31T00:48:00;16.90;99.90
12708;DHT22;6418;50.824;4.718;2023-07-31T00:50:28;16.90;99.90
12708;DHT22;6418;50.824;4.718;2023-07-31T00:52:55;16.90;99.90
12708;DHT22;6418;50.824;4.718;2023-07-31T00:55:22;16.90;99.90
12708;DHT22;6418;50.824;4.718;2023-07-31T00:57:49;16.90;99.90
12708;DHT22;6418;50.824;4.718;2023-07-31T01:00:18;16.90;99.90
12708;DHT22;6418;50.824;4.718;2023-07-31T01:02:46;16.90;99.90
12708;DHT22;6418;50.824;4.718;2023-07-31T01:05:13;16.90;99.90
12708;DHT22;6418;50.824;4.718;2023-07-31T01:07:45;16.90;99.90
12708;DHT22;6418;50.824;4.718;2023-07-31T01:10:19;17.00;99.90
12708;DHT22;6418;50.824;4.718;2023-07-31T01:12:48;17.00;99.90
12708;DHT22;6418;50.824;4.718;2023-07-31T01:15:17;17.00;99.90
12708;DHT22;6418;50.824;4.718;2023-07-31T01:17:45;17.00;99.90
12708;DHT22;6418;50.824;4.718;2023-07-31T01:20:15;17.00;99.90
12708;DHT22;6418;50.824;4.718;2023-07-31T01:25:56;17.00;99.90
12708;DHT22;6418;50.824;4.718;2023-07-31T01:28:30;17.00;99.90
12708;DHT22;6418;50.824;4.718;2023-07-31T01:31:00;17.00;99.90
12708;DHT22;6418;50.824;4.718;2023-07-31T01:33:29;17.00;99.90
12708;DHT22;6418;50.824;4.718;2023-07-31T01:35:57;17.00;99.90
12708;DHT22;6418;50.824;4.718;2023-07-31T01:38:24;17.00;99.90
12708;DHT22;6418;50.824;4.718;2023-07-31T01:40:53;17.00;99.90
12708;DHT22;6418;50.824;4.718;2023-07-31T01:43:20;17.00;99.90
12708;DHT22;6418;50.824;4.718;2023-07-31T01:45:47;17.00;99.90
12708;DHT22;6418;50.824;4.718;2023-07-31T01:48:14;17.00;99.90
12708;DHT22;6418;50.824;4.718;2023-07-31T01:50:41;17.00;99.90
12708;DHT22;6418;50.824;4.718;2023-07-31T01:53:07;17.00;99.90
12708;DHT22;6418;50.824;4.718;2023-07-31T01:55:34;17.00;99.90
12708;DHT22;6418;50.824;4.718;2023-07-31T01:58:02;17.00;99.90
12708;DHT22;6418;50.824;4.718;2023-07-31T02:00:29;17.00;99.90
12708;DHT22;6418;50.824;4.718;2023-07-31T02:02:56;17.00;99.90
12708;DHT22;6418;50.824;4.718;2023-07-31T02:05:23;17.00;99.90
12708;DHT22;6418;50.824;4.718;2023-07-31T02:07:50;17.00;99.90
12708;DHT22;6418;50.824;4.718;2023-07-31T02:10:17;17.00;99.90
12708;DHT22;6418;50.824;4.718;2023-07-31T02:12:44;17.00;99.90
12708;DHT22;6418;50.824;4.718;2023-07-31T02:15:12;17.00;99.90
12708;DHT22;6418;50.824;4.718;2023-07-31T02:17:39;17.00;99.90
12708;DHT22;6418;50.824;4.718;2023-07-31T02:20:07;17.00;99.90
12708;DHT22;6418;50.824;4.718;2023-07-31T02:22:33;17.00;99.90
12708;DHT22;6418;50.824;4.718;2023-07-31T02:25:00;17.00;99.90
12708;DHT22;6418;50.824;4.718;2023-07-31T02:27:27;17.00;99.90
12708;DHT22;6418;50.824;4.718;2023-07-31T02:29:54;17.00;99.90
12708;DHT22;6418;50.824;4.718;2023-07-31T02:32:22;17.00;99.90
12708;DHT22;6418;50.824;4.718;2023-07-31T02:34:49;17.00;99.90
12708;DHT22;6418;50.824;4.718;2023-07-31T02:37:16;17.00;99.90
12708;DHT22;6418;50.824;4.718;2023-07-31T02:39:43;17.00;99.90
12708;DHT22;6418;50.824;4.718;2023-07-31T02:42:10;17.00;99.90
12708;DHT22;6418;50.824;4.718;2023-07-31T02:44:37;17.00;99.90
12708;DHT22;6418;50.824;4.718;2023-07-31T02:47:04;17.00;99.90
12708;DHT22;6418;50.824;4.718;2023-07-31T02:49:32;17.00;99.90
12708;DHT22;6418;50.824;4.718;2023-07-31T02:51:59;17.00;99.90
12708;DHT22;6418;50.824;4.718;2023-07-31T02:54:26;17.00;99.90
12708;DHT22;6418;50.824;4.718;2023-07-31T02:56:53;17.00;99.90
12708;DHT22;6418;50.824;4.718;2023-07-31T02:59:20;17.00;99.90
12708;DHT22;6418;50.824;4.718;2023-07-31T03:01:47;16.90;99.90
12708;DHT22;6418;50.824;4.718;2023-07-31T03:04:14;16.90;99.90
12708;DHT22;6418;50.824;4.718;2023-07-31T03:06:42;16.90;99.90
12708;DHT22;6418;50.824;4.718;2023-07-31T03:09:09;17.00;99.90
12708;DHT22;6418;50.824;4.718;2023-07-31T03:11:36;17.00;99.90
12708;DHT22;6418;50.824;4.718;2023-07-31T03:14:03;17.00;99.90
12708;DHT22;6418;50.824;4.718;2023-07-31T03:16:30;17.00;99.90
12708;DHT22;6418;50.824;4.718;2023-07-31T03:18:57;17.00;99.90
12708;DHT22;6418;50.824;4.718;2023-07-31T03:21:24;17.00;99.90
12708;DHT22;6418;50.824;4.718;2023-07-31T03:23:52;17.00;99.90
12708;DHT22;6418;50.824;4.718;2023-07-31T03:26:19;17.00;99.90
12708;DHT22;6418;50.824;4.718;2023-07-31T03:28:46;17.00;99.90
12708;DHT22;6418;50.824;4.718;2023-07-31T03:31:13;17.00;99.90
12708;DHT22;6418;50.824;4.718;2023-07-31T03:33:40;17.00;99.90
12708;DHT22;6418;50.824;4.718;2023-07-31T03:36:07;17.00;99.90
12708;DHT22;6418;50.824;4.718;2023-07-31T03:38:34;17.00;99.90
12708;DHT22;6418;50.824;4.718;2023-07-31T03:41:02;17.00;99.90
12708;DHT22;6418;50.824;4.718;2023-07-31T03:43:31;17.00;99.90
12708;DHT22;6418;50.824;4.718;2023-07-31T03:45:59;17.00;99.90
12708;DHT22;6418;50.824;4.718;2023-07-31T03:48:26;17.10;99.90
12708;DHT22;6418;50.824;4.718;2023-07-31T03:50:53;17.10;99.90
12708;DHT22;6418;50.824;4.718;2023-07-31T03:53:20;17.00;99.90
12708;DHT22;6418;50.824;4.718;2023-07-31T03:55:47;17.10;99.90
12708;DHT22;6418;50.824;4.718;2023-07-31T03:58:15;17.10;99.90
12708;DHT22;6418;50.824;4.718;2023-07-31T04:00:42;17.00;99.90
12708;DHT22;6418;50.824;4.718;2023-07-31T04:03:09;17.00;99.90
12708;DHT22;6418;50.824;4.718;2023-07-31T04:05:38;17.10;99.90
12708;DHT22;6418;50.824;4.718;2023-07-31T04:08:05;17.10;99.90
12708;DHT22;6418;50.824;4.718;2023-07-31T04:10:32;17.10;99.90
12708;DHT22;6418;50.824;4.718;2023-07-31T04:12:59;17.10;99.90
12708;DHT22;6418;50.824;4.718;2023-07-31T04:15:27;17.00;99.90
12708;DHT22;6418;50.824;4.718;2023-07-31T04:17:54;17.00;99.90
12708;DHT22;6418;50.824;4.718;2023-07-31T04:20:21;17.00;99.90
12708;DHT22;6418;50.824;4.718;2023-07-31T04:22:49;17.00;99.90
12708;DHT22;6418;50.824;4.718;2023-07-31T04:25:16;17.00;99.90
12708;DHT22;6418;50.824;4.718;2023-07-31T04:27:43;17.00;99.90
12708;DHT22;6418;50.824;4.718;2023-07-31T04:30:10;16.90;99.90
12708;DHT22;6418;50.824;4.718;2023-07-31T04:32:39;16.90;99.90
12708;DHT22;6418;50.824;4.718;2023-07-31T04:35:06;16.90;99.90
12708;DHT22;6418;50.824;4.718;2023-07-31T04:37:33;16.90;99.90
12708;DHT22;6418;50.824;4.718;2023-07-31T04:40:00;16.90;99.90
12708;DHT22;6418;50.824;4.718;2023-07-31T04:42:27;16.90;99.90
12708;DHT22;6418;50.824;4.718;2023-07-31T04:44:54;16.80;99.90
12708;DHT22;6418;50.824;4.718;2023-07-31T04:47:21;16.80;99.90
12708;DHT22;6418;50.824;4.718;2023-07-31T04:49:49;16.80;99.90
12708;DHT22;6418;50.824;4.718;2023-07-31T04:52:16;16.80;99.90
12708;DHT22;6418;50.824;4.718;2023-07-31T04:54:43;16.80;99.90
12708;DHT22;6418;50.824;4.718;2023-07-31T04:57:10;16.80;99.90
12708;DHT22;6418;50.824;4.718;2023-07-31T04:59:37;16.80;99.90
12708;DHT22;6418;50.824;4.718;2023-07-31T05:02:05;16.80;99.90
12708;DHT22;6418;50.824;4.718;2023-07-31T05:04:32;16.80;99.90
12708;DHT22;6418;50.824;4.718;2023-07-31T05:07:00;16.80;99.90
12708;DHT22;6418;50.824;4.718;2023-07-31T05:09:27;16.80;99.90
12708;DHT22;6418;50.824;4.718;2023-07-31T05:11:54;16.80;99.90
12708;DHT22;6418;50.824;4.718;2023-07-31T05:14:21;16.80;99.90
12708;DHT22;6418;50.824;4.718;2023-07-31T05:16:48;16.80;99.90
12708;DHT22;6418;50.824;4.718;2023-07-31T05:19:15;16.90;99.90
12708;DHT22;6418;50.824;4.718;2023-07-31T05:21:42;16.80;99.90
12708;DHT22;6418;50.824;4.718;2023-07-31T05:24:10;16.80;99.90
12708;DHT22;6418;50.824;4.718;2023-07-31T05:26:37;16.80;99.90
12708;DHT22;6418;50.824;4.718;2023-07-31T05:29:04;16.80;99.90
12708;DHT22;6418;50.824;4.718;2023-07-31T05:31:31;16.80;99.90
12708;DHT22;6418;50.824;4.718;2023-07-31T05:33:59;16.80;99.90
12708;DHT22;6418;50.824;4.718;2023-07-31T05:36:25;16.80;99.90
12708;DHT22;6418;50.824;4.718;2023-07-31T05:38:52;16.80;99.90
12708;DHT22;6418;50.824;4.718;2023-07-31T05:41:21;16.80;99.90
12708;DHT22;6418;50.824;4.718;2023-07-31T05:43:48;16.80;99.90
12708;DHT22;6418;50.824;4.718;2023-07-31T05:46:15;16.80;99.90
12708;DHT22;6418;50.824;4.718;2023-07-31T05:48:41;16.70;99.90
12708;DHT22;6418;50.824;4.718;2023-07-31T05:51:08;16.70;99.90
12708;DHT22;6418;50.824;4.718;2023-07-31T05:53:35;16.70;99.90
12708;DHT22;6418;50.824;4.718;2023-07-31T05:56:06;16.70;99.90
12708;DHT22;6418;50.824;4.718;2023-07-31T05:58:34;16.70;99.90
12708;DHT22;6418;50.824;4.718;2023-07-31T06:01:01;16.60;99.90
12708;DHT22;6418;50.824;4.718;2023-07-31T06:03:28;16.60;99.90
12708;DHT22;6418;50.824;4.718;2023-07-31T06:05:56;16.60;99.90
12708;DHT22;6418;50.824;4.718;2023-07-31T06:08:23;16.60;99.90
12708;DHT22;6418;50.824;4.718;2023-07-31T06:10:50;16.60;99.90
12708;DHT22;6418;50.824;4.718;2023-07-31T06:13:16;16.60;99.90
12708;DHT22;6418;50.824;4.718;2023-07-31T06:15:45;16.60;99.90
12708;DHT22;6418;50.824;4.718;2023-07-31T06:18:12;16.60;99.90
12708;DHT22;6418;50.824;4.718;2023-07-31T06:20:39;16.60;99.90
12708;DHT22;6418;50.824;4.718;2023-07-31T06:23:06;16.60;99.90
12708;DHT22;6418;50.824;4.718;2023-07-31T06:25:33;16.50;99.90
12708;DHT22;6418;50.824;4.718;2023-07-31T06:28:00;16.50;99.90
12708;DHT22;6418;50.824;4.718;2023-07-31T06:30:27;16.50;99.90
12708;DHT22;6418;50.824;4.718;2023-07-31T06:32:56;16.50;99.90
12708;DHT22;6418;50.824;4.718;2023-07-31T06:35:23;16.50;99.90
12708;DHT22;6418;50.824;4.718;2023-07-31T06:37:49;16.50;99.90
12708;DHT22;6418;50.824;4.718;2023-07-31T06:40:17;16.50;99.90
12708;DHT22;6418;50.824;4.718;2023-07-31T06:42:44;16.60;99.90
12708;DHT22;6418;50.824;4.718;2023-07-31T06:45:11;16.60;99.90
12708;DHT22;6418;50.824;4.718;2023-07-31T06:47:38;16.60;99.90
12708;DHT22;6418;50.824;4.718;2023-07-31T06:50:08;16.60;99.90
12708;DHT22;6418;50.824;4.718;2023-07-31T06:52:35;16.60;99.90
12708;DHT22;6418;50.824;4.718;2023-07-31T06:55:03;16.60;99.90
12708;DHT22;6418;50.824;4.718;2023-07-31T06:57:31;16.60;99.90
12708;DHT22;6418;50.824;4.718;2023-07-31T06:59:59;16.70;99.90
12708;DHT22;6418;50.824;4.718;2023-07-31T07:02:26;16.70;99.90
12708;DHT22;6418;50.824;4.718;2023-07-31T07:04:53;16.70;99.90
12708;DHT22;6418;50.824;4.718;2023-07-31T07:07:21;16.70;99.90
12708;DHT22;6418;50.824;4.718;2023-07-31T07:09:48;16.70;99.90
12708;DHT22;6418;50.824;4.718;2023-07-31T07:12:15;16.70;99.90
12708;DHT22;6418;50.824;4.718;2023-07-31T07:14:42;16.80;99.90
12708;DHT22;6418;50.824;4.718;2023-07-31T07:17:09;16.80;99.90
12708;DHT22;6418;50.824;4.718;2023-07-31T07:19:36;16.80;99.90
12708;DHT22;6418;50.824;4.718;2023-07-31T07:22:03;16.90;99.90
12708;DHT22;6418;50.824;4.718;2023-07-31T07:24:31;16.90;99.90
12708;DHT22;6418;50.824;4.718;2023-07-31T07:26:58;16.90;99.90
12708;DHT22;6418;50.824;4.718;2023-07-31T07:29:26;16.90;99.90
12708;DHT22;6418;50.824;4.718;2023-07-31T07:31:53;17.00;99.90
12708;DHT22;6418;50.824;4.718;2023-07-31T07:34:22;17.00;99.90
12708;DHT22;6418;50.824;4.718;2023-07-31T07:36:49;17.00;99.90
12708;DHT22;6418;50.824;4.718;2023-07-31T07:39:16;17.10;99.90
12708;DHT22;6418;50.824;4.718;2023-07-31T07:41:44;17.10;99.90
12708;DHT22;6418;50.824;4.718;2023-07-31T07:44:12;17.10;99.90
12708;DHT22;6418;50.824;4.718;2023-07-31T07:46:41;17.20;99.90
12708;DHT22;6418;50.824;4.718;2023-07-31T07:49:08;17.20;99.90
12708;DHT22;6418;50.824;4.718;2023-07-31T07:51:35;17.20;99.90
12708;DHT22;6418;50.824;4.718;2023-07-31T07:54:02;17.30;99.90
12708;DHT22;6418;50.824;4.718;2023-07-31T07:56:29;17.30;99.90
12708;DHT22;6418;50.824;4.718;2023-07-31T07:58:57;17.30;99.90
12708;DHT22;6418;50.824;4.718;2023-07-31T08:01:24;17.40;99.90
12708;DHT22;6418;50.824;4.718;2023-07-31T08:03:52;17.40;99.90
12708;DHT22;6418;50.824;4.718;2023-07-31T08:06:19;17.50;99.90
12708;DHT22;6418;50.824;4.718;2023-07-31T08:08:45;17.50;99.90
12708;DHT22;6418;50.824;4.718;2023-07-31T08:11:12;17.50;99.90
12708;DHT22;6418;50.824;4.718;2023-07-31T08:13:39;17.60;99.90
12708;DHT22;6418;50.824;4.718;2023-07-31T08:16:08;17.60;99.90
12708;DHT22;6418;50.824;4.718;2023-07-31T08:18:35;17.60;99.90
12708;DHT22;6418;50.824;4.718;2023-07-31T08:21:02;17.60;99.90
12708;DHT22;6418;50.824;4.718;2023-07-31T08:23:29;17.60;99.90
12708;DHT22;6418;50.824;4.718;2023-07-31T08:25:56;17.70;99.90
12708;DHT22;6418;50.824;4.718;2023-07-31T08:28:23;17.70;99.90
12708;DHT22;6418;50.824;4.718;2023-07-31T08:30:50;17.70;99.90
12708;DHT22;6418;50.824;4.718;2023-07-31T08:33:19;17.70;99.90
12708;DHT22;6418;50.824;4.718;2023-07-31T08:35:45;17.70;99.90
12708;DHT22;6418;50.824;4.718;2023-07-31T08:38:13;17.70;99.90
12708;DHT22;6418;50.824;4.718;2023-07-31T08:40:40;17.70;99.90
12708;DHT22;6418;50.824;4.718;2023-07-31T08:43:08;17.70;99.90
12708;DHT22;6418;50.824;4.718;2023-07-31T08:45:35;17.80;99.90
12708;DHT22;6418;50.824;4.718;2023-07-31T08:48:03;17.80;99.90
12708;DHT22;6418;50.824;4.718;2023-07-31T08:50:32;17.90;99.90
12708;DHT22;6418;50.824;4.718;2023-07-31T08:53:00;17.90;99.90
12708;DHT22;6418;50.824;4.718;2023-07-31T08:55:28;17.90;99.90
12708;DHT22;6418;50.824;4.718;2023-07-31T08:57:56;17.90;99.90
12708;DHT22;6418;50.824;4.718;2023-07-31T09:00:24;17.80;99.90
12708;DHT22;6418;50.824;4.718;2023-07-31T09:02:56;17.90;99.90
12708;DHT22;6418;50.824;4.718;2023-07-31T09:05:26;17.80;99.90
12708;DHT22;6418;50.824;4.718;2023-07-31T09:07:56;17.80;99.90
12708;DHT22;6418;50.824;4.718;2023-07-31T09:10:23;17.80;99.90
12708;DHT22;6418;50.824;4.718;2023-07-31T09:12:51;17.90;99.90
12708;DHT22;6418;50.824;4.718;2023-07-31T09:15:19;17.90;99.90
12708;DHT22;6418;50.824;4.718;2023-07-31T09:17:46;18.00;99.90
12708;DHT22;6418;50.824;4.718;2023-07-31T09:20:14;18.00;99.90
12708;DHT22;6418;50.824;4.718;2023-07-31T09:22:42;18.00;99.90
12708;DHT22;6418;50.824;4.718;2023-07-31T09:25:18;18.00;99.90
12708;DHT22;6418;50.824;4.718;2023-07-31T09:27:49;18.10;99.90
12708;DHT22;6418;50.824;4.718;2023-07-31T09:30:17;18.10;99.90
12708;DHT22;6418;50.824;4.718;2023-07-31T09:32:45;18.10;99.90
12708;DHT22;6418;50.824;4.718;2023-07-31T09:35:16;18.20;99.90
12708;DHT22;6418;50.824;4.718;2023-07-31T09:37:48;18.20;99.90
12708;DHT22;6418;50.824;4.718;2023-07-31T09:40:27;18.20;99.90
12708;DHT22;6418;50.824;4.718;2023-07-31T09:42:56;18.30;99.90
12708;DHT22;6418;50.824;4.718;2023-07-31T09:45:24;18.40;99.90
12708;DHT22;6418;50.824;4.718;2023-07-31T09:47:51;18.50;99.90
12708;DHT22;6418;50.824;4.718;2023-07-31T09:50:20;18.60;99.90
12708;DHT22;6418;50.824;4.718;2023-07-31T09:52:47;18.60;99.90
12708;DHT22;6418;50.824;4.718;2023-07-31T09:55:14;18.60;99.90
12708;DHT22;6418;50.824;4.718;2023-07-31T09:57:44;18.60;99.90
12708;DHT22;6418;50.824;4.718;2023-07-31T10:00:13;18.60;99.90
12708;DHT22;6418;50.824;4.718;2023-07-31T10:02:41;18.60;99.90
12708;DHT22;6418;50.824;4.718;2023-07-31T10:05:08;18.60;99.90
12708;DHT22;6418;50.824;4.718;2023-07-31T10:07:38;18.50;99.90
12708;DHT22;6418;50.824;4.718;2023-07-31T10:10:08;18.60;99.90
12708;DHT22;6418;50.824;4.718;2023-07-31T10:12:36;18.60;99.90
12708;DHT22;6418;50.824;4.718;2023-07-31T10:15:05;18.60;99.90
12708;DHT22;6418;50.824;4.718;2023-07-31T10:17:33;18.60;99.90
12708;DHT22;6418;50.824;4.718;2023-07-31T10:20:03;18.70;99.90
12708;DHT22;6418;50.824;4.718;2023-07-31T10:22:31;18.70;99.90
12708;DHT22;6418;50.824;4.718;2023-07-31T10:24:59;18.70;99.90
12708;DHT22;6418;50.824;4.718;2023-07-31T10:27:27;18.80;99.90
12708;DHT22;6418;50.824;4.718;2023-07-31T10:29:55;18.80;99.90
12708;DHT22;6418;50.824;4.718;2023-07-31T10:32:25;18.80;99.90
12708;DHT22;6418;50.824;4.718;2023-07-31T10:34:52;18.70;99.90
12708;DHT22;6418;50.824;4.718;2023-07-31T10:37:20;18.80;99.90
12708;DHT22;6418;50.824;4.718;2023-07-31T10:39:59;18.90;99.90
12708;DHT22;6418;50.824;4.718;2023-07-31T10:42:31;19.00;99.90
12708;DHT22;6418;50.824;4.718;2023-07-31T10:45:00;19.00;99.90
12708;DHT22;6418;50.824;4.718;2023-07-31T10:47:29;19.10;99.90
12708;DHT22;6418;50.824;4.718;2023-07-31T10:50:14;19.10;99.90
12708;DHT22;6418;50.824;4.718;2023-07-31T10:52:46;19.20;99.90
12708;DHT22;6418;50.824;4.718;2023-07-31T10:55:27;19.20;99.90
12708;DHT22;6418;50.824;4.718;2023-07-31T10:57:56;19.30;99.90
12708;DHT22;6418;50.824;4.718;2023-07-31T11:00:26;19.30;99.90
12708;DHT22;6418;50.824;4.718;2023-07-31T11:02:58;19.30;99.90
12708;DHT22;6418;50.824;4.718;2023-07-31T11:05:46;19.30;99.90
12708;DHT22;6418;50.824;4.718;2023-07-31T11:08:15;19.30;99.90
12708;DHT22;6418;50.824;4.718;2023-07-31T11:10:43;19.30;99.90
12708;DHT22;6418;50.824;4.718;2023-07-31T11:13:11;19.40;99.90
12708;DHT22;6418;50.824;4.718;2023-07-31T11:15:38;19.50;99.90
12708;DHT22;6418;50.824;4.718;2023-07-31T11:18:07;19.50;99.90
12708;DHT22;6418;50.824;4.718;2023-07-31T11:20:37;19.60;99.90
12708;DHT22;6418;50.824;4.718;2023-07-31T11:23:07;19.60;99.90
12708;DHT22;6418;50.824;4.718;2023-07-31T11:25:36;19.60;99.90
12708;DHT22;6418;50.824;4.718;2023-07-31T11:28:05;19.60;99.90
12708;DHT22;6418;50.824;4.718;2023-07-31T11:30:32;19.70;99.90
12708;DHT22;6418;50.824;4.718;2023-07-31T11:33:01;19.70;99.90
12708;DHT22;6418;50.824;4.718;2023-07-31T11:35:31;19.70;99.90
12708;DHT22;6418;50.824;4.718;2023-07-31T11:37:58;19.80;99.90
12708;DHT22;6418;50.824;4.718;2023-07-31T11:40:25;19.80;99.90
12708;DHT22;6418;50.824;4.718;2023-07-31T11:42:58;19.90;99.90
12708;DHT22;6418;50.824;4.718;2023-07-31T11:45:26;20.00;99.90
12708;DHT22;6418;50.824;4.718;2023-07-31T11:47:55;20.00;99.90
12708;DHT22;6418;50.824;4.718;2023-07-31T11:50:23;20.00;99.90
12708;DHT22;6418;50.824;4.718;2023-07-31T11:52:57;20.10;99.90
12708;DHT22;6418;50.824;4.718;2023-07-31T11:55:26;20.10;99.90
12708;DHT22;6418;50.824;4.718;2023-07-31T11:57:56;20.20;99.90
12708;DHT22;6418;50.824;4.718;2023-07-31T12:00:24;20.20;99.90
12708;DHT22;6418;50.824;4.718;2023-07-31T12:02:52;20.30;99.90
12708;DHT22;6418;50.824;4.718;2023-07-31T12:05:19;20.30;99.90
12708;DHT22;6418;50.824;4.718;2023-07-31T12:07:50;20.30;99.90
12708;DHT22;6418;50.824;4.718;2023-07-31T12:10:27;20.30;99.90
12708;DHT22;6418;50.824;4.718;2023-07-31T12:13:00;20.40;99.90
12708;DHT22;6418;50.824;4.718;2023-07-31T12:15:32;20.40;99.90
12708;DHT22;6418;50.824;4.718;2023-07-31T12:18:00;20.50;99.90
12708;DHT22;6418;50.824;4.718;2023-07-31T12:20:27;20.60;99.90
12708;DHT22;6418;50.824;4.718;2023-07-31T12:22:56;20.80;99.90
12708;DHT22;6418;50.824;4.718;2023-07-31T12:25:30;21.00;99.90
12708;DHT22;6418;50.824;4.718;2023-07-31T12:27:57;21.00;99.90
12708;DHT22;6418;50.824;4.718;2023-07-31T12:30:28;21.20;99.90
12708;DHT22;6418;50.824;4.718;2023-07-31T12:32:55;21.20;99.90
12708;DHT22;6418;50.824;4.718;2023-07-31T12:35:22;21.30;99.90
12708;DHT22;6418;50.824;4.718;2023-07-31T12:37:49;21.30;99.90
12708;DHT22;6418;50.824;4.718;2023-07-31T12:40:16;21.30;99.90
12708;DHT22;6418;50.824;4.718;2023-07-31T12:42:45;21.30;99.90
12708;DHT22;6418;50.824;4.718;2023-07-31T12:45:12;21.30;99.90
12708;DHT22;6418;50.824;4.718;2023-07-31T12:47:39;21.30;99.90
12708;DHT22;6418;50.824;4.718;2023-07-31T12:50:07;21.30;99.90
12708;DHT22;6418;50.824;4.718;2023-07-31T12:52:34;21.20;99.90
12708;DHT22;6418;50.824;4.718;2023-07-31T12:55:01;21.20;99.90
12708;DHT22;6418;50.824;4.718;2023-07-31T12:57:28;21.10;99.90
12708;DHT22;6418;50.824;4.718;2023-07-31T12:59:56;21.00;99.90
12708;DHT22;6418;50.824;4.718;2023-07-31T13:02:23;20.90;99.90
12708;DHT22;6418;50.824;4.718;2023-07-31T13:04:50;20.90;99.90
12708;DHT22;6418;50.824;4.718;2023-07-31T13:07:18;20.90;99.90
12708;DHT22;6418;50.824;4.718;2023-07-31T13:09:45;20.80;99.90
12708;DHT22;6418;50.824;4.718;2023-07-31T13:12:12;20.70;99.90
12708;DHT22;6418;50.824;4.718;2023-07-31T13:14:39;20.70;99.90
12708;DHT22;6418;50.824;4.718;2023-07-31T13:17:07;20.70;99.90
12708;DHT22;6418;50.824;4.718;2023-07-31T13:19:34;20.70;99.90
12708;DHT22;6418;50.824;4.718;2023-07-31T13:22:01;20.70;99.90
12708;DHT22;6418;50.824;4.718;2023-07-31T13:24:29;20.70;99.90
12708;DHT22;6418;50.824;4.718;2023-07-31T13:26:57;20.70;99.90
12708;DHT22;6418;50.824;4.718;2023-07-31T13:29:24;20.60;99.90
12708;DHT22;6418;50.824;4.718;2023-07-31T13:31:52;20.60;99.90
12708;DHT22;6418;50.824;4.718;2023-07-31T13:34:20;20.60;99.90
12708;DHT22;6418;50.824;4.718;2023-07-31T13:36:47;20.50;99.90
12708;DHT22;6418;50.824;4.718;2023-07-31T13:39:14;20.40;99.90
12708;DHT22;6418;50.824;4.718;2023-07-31T13:41:41;20.40;99.90
12708;DHT22;6418;50.824;4.718;2023-07-31T13:44:08;20.30;99.90
12708;DHT22;6418;50.824;4.718;2023-07-31T13:46:35;20.20;99.90
12708;DHT22;6418;50.824;4.718;2023-07-31T13:49:02;20.20;99.90
12708;DHT22;6418;50.824;4.718;2023-07-31T13:51:31;20.00;99.90
12708;DHT22;6418;50.824;4.718;2023-07-31T13:53:58;20.00;99.90
12708;DHT22;6418;50.824;4.718;2023-07-31T13:56:25;19.90;99.90
12708;DHT22;6418;50.824;4.718;2023-07-31T13:58:52;19.80;99.90
12708;DHT22;6418;50.824;4.718;2023-07-31T14:01:19;19.70;99.90
12708;DHT22;6418;50.824;4.718;2023-07-31T14:03:46;19.60;99.90
12708;DHT22;6418;50.824;4.718;2023-07-31T14:06:13;19.50;99.90
12708;DHT22;6418;50.824;4.718;2023-07-31T14:08:41;19.50;99.90
12708;DHT22;6418;50.824;4.718;2023-07-31T14:11:08;19.40;99.90
12708;DHT22;6418;50.824;4.718;2023-07-31T14:13:35;19.30;99.90
12708;DHT22;6418;50.824;4.718;2023-07-31T14:16:02;19.30;99.90
12708;DHT22;6418;50.824;4.718;2023-07-31T14:18:29;19.20;99.90
12708;DHT22;6418;50.824;4.718;2023-07-31T14:20:56;19.10;99.90
12708;DHT22;6418;50.824;4.718;2023-07-31T14:23:23;19.10;99.90
12708;DHT22;6418;50.824;4.718;2023-07-31T14:25:51;19.10;99.90
12708;DHT22;6418;50.824;4.718;2023-07-31T14:28:18;19.00;99.90
12708;DHT22;6418;50.824;4.718;2023-07-31T14:30:45;18.90;99.90
12708;DHT22;6418;50.824;4.718;2023-07-31T14:33:12;18.90;99.90
12708;DHT22;6418;50.824;4.718;2023-07-31T14:35:39;18.90;99.90
12708;DHT22;6418;50.824;4.718;2023-07-31T14:38:06;18.90;99.90
12708;DHT22;6418;50.824;4.718;2023-07-31T14:40:33;18.80;99.90
12708;DHT22;6418;50.824;4.718;2023-07-31T14:43:02;18.80;99.90
12708;DHT22;6418;50.824;4.718;2023-07-31T14:45:28;18.70;99.90
12708;DHT22;6418;50.824;4.718;2023-07-31T14:47:55;18.70;99.90
12708;DHT22;6418;50.824;4.718;2023-07-31T14:50:24;18.70;99.90
12708;DHT22;6418;50.824;4.718;2023-07-31T14:52:51;18.80;99.90
12708;DHT22;6418;50.824;4.718;2023-07-31T14:55:18;18.80;99.90
12708;DHT22;6418;50.824;4.718;2023-07-31T14:57:45;18.70;99.90
12708;DHT22;6418;50.824;4.718;2023-07-31T15:00:14;18.70;99.90
12708;DHT22;6418;50.824;4.718;2023-07-31T15:02:41;18.70;99.90
12708;DHT22;6418;50.824;4.718;2023-07-31T15:05:09;18.70;99.90
12708;DHT22;6418;50.824;4.718;2023-07-31T15:07:36;18.70;99.90
12708;DHT22;6418;50.824;4.718;2023-07-31T15:10:03;18.70;99.90
12708;DHT22;6418;50.824;4.718;2023-07-31T15:12:31;18.70;99.90
12708;DHT22;6418;50.824;4.718;2023-07-31T15:14:58;18.70;99.90
12708;DHT22;6418;50.824;4.718;2023-07-31T15:17:26;18.80;99.90
12708;DHT22;6418;50.824;4.718;2023-07-31T15:19:55;18.70;99.90
12708;DHT22;6418;50.824;4.718;2023-07-31T15:22:22;18.70;99.90
12708;DHT22;6418;50.824;4.718;2023-07-31T15:24:50;18.70;99.90
12708;DHT22;6418;50.824;4.718;2023-07-31T15:27:17;18.70;99.90
12708;DHT22;6418;50.824;4.718;2023-07-31T15:29:47;18.70;99.90
12708;DHT22;6418;50.824;4.718;2023-07-31T15:32:16;18.60;99.90
12708;DHT22;6418;50.824;4.718;2023-07-31T15:34:45;18.60;99.90
12708;DHT22;6418;50.824;4.718;2023-07-31T15:37:12;18.60;99.90
12708;DHT22;6418;50.824;4.718;2023-07-31T15:39:39;18.60;99.90
12708;DHT22;6418;50.824;4.718;2023-07-31T15:42:06;18.60;99.90
12708;DHT22;6418;50.824;4.718;2023-07-31T15:44:34;18.60;99.90
12708;DHT22;6418;50.824;4.718;2023-07-31T15:47:02;18.60;99.90
12708;DHT22;6418;50.824;4.718;2023-07-31T15:49:29;18.50;99.90
12708;DHT22;6418;50.824;4.718;2023-07-31T15:51:57;18.50;99.90